sensor_id;sensor_type;location;lat;lon;timestamp;temperature;humidity
32446;DHT22;18899;50.748;7.102;2022-12-22T00:01:43;11.40;99.90
32446;DHT22;18899;50.748;7.102;2022-12-22T00:04:29;11.40;99.90
32446;DHT22;18899;50.748;7.102;2022-12-22T00:07:13;11.40;99.90
32446;DHT22;18899;50.748;7.102;2022-12-22T00:09:57;11.30;99.90
32446;DHT22;18899;50.748;7.102;2022-12-22T00:12:42;11.10;99.90
32446;DHT22;18899;50.748;7.102;2022-12-22T00:15:27;11.30;99.90
32446;DHT22;18899;50.748;7.102;2022-12-22T00:18:14;11.30;99.90
32446;DHT22;18899;50.748;7.102;2022-12-22T00:20:59;11.20;99.90
32446;DHT22;18899;50.748;7.102;2022-12-22T00:23:43;11.10;99.90
32446;DHT22;18899;50.748;7.102;2022-12-22T00:26:31;11.00;99.90
32446;DHT22;18899;50.748;7.102;2022-12-22T00:29:16;10.90;99.90
32446;DHT22;18899;50.748;7.102;2022-12-22T00:32:01;10.90;99.90
32446;DHT22;18899;50.748;7.102;2022-12-22T00:34:45;11.00;99.90
32446;DHT22;18899;50.748;7.102;2022-12-22T00:37:33;11.00;99.90
32446;DHT22;18899;50.748;7.102;2022-12-22T00:40:20;11.00;99.90
32446;DHT22;18899;50.748;7.102;2022-12-22T00:43:05;11.10;99.90
32446;DHT22;18899;50.748;7.102;2022-12-22T00:45:49;11.20;99.90
32446;DHT22;18899;50.748;7.102;2022-12-22T00:48:34;11.20;99.90
32446;DHT22;18899;50.748;7.102;2022-12-22T00:51:18;11.30;99.90
32446;DHT22;18899;50.748;7.102;2022-12-22T00:54:04;11.20;99.90
32446;DHT22;18899;50.748;7.102;2022-12-22T00:56:51;11.20;99.90
32446;DHT22;18899;50.748;7.102;2022-12-22T00:59:36;11.30;99.90
32446;DHT22;18899;50.748;7.102;2022-12-22T01:02:20;11.20;99.90
32446;DHT22;18899;50.748;7.102;2022-12-22T01:05:04;11.20;99.90
32446;DHT22;18899;50.748;7.102;2022-12-22T01:07:49;11.10;99.90
32446;DHT22;18899;50.748;7.102;2022-12-22T01:10:33;11.10;99.90
32446;DHT22;18899;50.748;7.102;2022-12-22T01:13:17;11.00;99.90
32446;DHT22;18899;50.748;7.102;2022-12-22T01:16:01;11.00;99.90
32446;DHT22;18899;50.748;7.102;2022-12-22T01:18:45;11.10;99.90
32446;DHT22;18899;50.748;7.102;2022-12-22T01:21:29;11.30;99.90
32446;DHT22;18899;50.748;7.102;2022-12-22T01:24:16;11.30;99.90
32446;DHT22;18899;50.748;7.102;2022-12-22T01:27:01;11.50;99.90
32446;DHT22;18899;50.748;7.102;2022-12-22T01:29:45;11.50;99.90
32446;DHT22;18899;50.748;7.102;2022-12-22T01:32:29;11.40;99.90
32446;DHT22;18899;50.748;7.102;2022-12-22T01:35:22;11.40;99.90
32446;DHT22;18899;50.748;7.102;2022-12-22T01:38:07;11.50;99.90
32446;DHT22;18899;50.748;7.102;2022-12-22T01:40:52;11.50;99.90
32446;DHT22;18899;50.748;7.102;2022-12-22T01:43:37;11.60;99.90
32446;DHT22;18899;50.748;7.102;2022-12-22T01:46:30;11.60;99.90
32446;DHT22;18899;50.748;7.102;2022-12-22T01:52:01;11.70;99.90
32446;DHT22;18899;50.748;7.102;2022-12-22T01:54:47;11.60;99.90
32446;DHT22;18899;50.748;7.102;2022-12-22T01:57:32;11.50;99.90
32446;DHT22;18899;50.748;7.102;2022-12-22T02:00:17;11.60;99.90
32446;DHT22;18899;50.748;7.102;2022-12-22T02:03:02;11.60;99.90
32446;DHT22;18899;50.748;7.102;2022-12-22T02:06:00;11.50;99.90
32446;DHT22;18899;50.748;7.102;2022-12-22T02:08:57;11.60;99.90
32446;DHT22;18899;50.748;7.102;2022-12-22T02:12:09;11.70;99.90
32446;DHT22;18899;50.748;7.102;2022-12-22T02:15:18;11.70;99.90
32446;DHT22;18899;50.748;7.102;2022-12-22T02:21:13;11.90;99.90
32446;DHT22;18899;50.748;7.102;2022-12-22T02:27:11;11.90;99.90
32446;DHT22;18899;50.748;7.102;2022-12-22T02:30:02;11.90;99.90
32446;DHT22;18899;50.748;7.102;2022-12-22T02:32:49;11.80;99.90
32446;DHT22;18899;50.748;7.102;2022-12-22T02:36:20;11.70;99.90
32446;DHT22;18899;50.748;7.102;2022-12-22T02:42:07;11.70;99.90
32446;DHT22;18899;50.748;7.102;2022-12-22T02:45:28;11.70;99.90
32446;DHT22;18899;50.748;7.102;2022-12-22T02:48:41;11.70;99.90
32446;DHT22;18899;50.748;7.102;2022-12-22T02:51:33;11.80;99.90
32446;DHT22;18899;50.748;7.102;2022-12-22T02:54:20;11.60;99.90
32446;DHT22;18899;50.748;7.102;2022-12-22T02:57:06;11.30;99.90
32446;DHT22;18899;50.748;7.102;2022-12-22T02:59:51;11.30;99.90
32446;DHT22;18899;50.748;7.102;2022-12-22T03:02:35;11.30;99.90
32446;DHT22;18899;50.748;7.102;2022-12-22T03:05:19;11.30;99.90
32446;DHT22;18899;50.748;7.102;2022-12-22T03:08:03;11.20;99.90
32446;DHT22;18899;50.748;7.102;2022-12-22T03:10:47;11.20;99.90
32446;DHT22;18899;50.748;7.102;2022-12-22T03:13:31;11.20;99.90
32446;DHT22;18899;50.748;7.102;2022-12-22T03:16:15;11.20;99.90
32446;DHT22;18899;50.748;7.102;2022-12-22T03:18:59;11.20;99.90
32446;DHT22;18899;50.748;7.102;2022-12-22T03:21:44;11.30;99.90
32446;DHT22;18899;50.748;7.102;2022-12-22T03:24:27;11.20;99.90
32446;DHT22;18899;50.748;7.102;2022-12-22T03:27:12;11.20;99.90
32446;DHT22;18899;50.748;7.102;2022-12-22T03:29:37;11.20;99.90
32446;DHT22;18899;50.748;7.102;2022-12-22T03:32:03;11.30;99.90
32446;DHT22;18899;50.748;7.102;2022-12-22T03:34:29;11.30;99.90
32446;DHT22;18899;50.748;7.102;2022-12-22T03:36:54;11.40;99.90
32446;DHT22;18899;50.748;7.102;2022-12-22T03:39:20;11.50;99.90
32446;DHT22;18899;50.748;7.102;2022-12-22T03:41:45;11.30;99.90
32446;DHT22;18899;50.748;7.102;2022-12-22T03:44:29;11.30;99.90
32446;DHT22;18899;50.748;7.102;2022-12-22T03:47:13;11.30;99.90
32446;DHT22;18899;50.748;7.102;2022-12-22T03:49:39;11.20;99.90
32446;DHT22;18899;50.748;7.102;2022-12-22T03:52:04;11.40;99.90
32446;DHT22;18899;50.748;7.102;2022-12-22T03:54:30;11.50;99.90
32446;DHT22;18899;50.748;7.102;2022-12-22T03:56:56;11.40;99.90
32446;DHT22;18899;50.748;7.102;2022-12-22T03:59:22;11.30;99.90
32446;DHT22;18899;50.748;7.102;2022-12-22T04:01:50;11.30;99.90
32446;DHT22;18899;50.748;7.102;2022-12-22T04:04:17;11.20;99.90
32446;DHT22;18899;50.748;7.102;2022-12-22T04:06:44;11.20;99.90
32446;DHT22;18899;50.748;7.102;2022-12-22T04:09:09;11.10;99.90
32446;DHT22;18899;50.748;7.102;2022-12-22T04:11:35;11.00;99.90
32446;DHT22;18899;50.748;7.102;2022-12-22T04:14:20;10.90;99.90
32446;DHT22;18899;50.748;7.102;2022-12-22T04:16:46;10.80;99.90
32446;DHT22;18899;50.748;7.102;2022-12-22T04:19:11;10.90;99.90
32446;DHT22;18899;50.748;7.102;2022-12-22T04:21:37;10.90;99.90
32446;DHT22;18899;50.748;7.102;2022-12-22T04:24:03;10.80;99.90
32446;DHT22;18899;50.748;7.102;2022-12-22T04:26:28;10.90;99.90
32446;DHT22;18899;50.748;7.102;2022-12-22T04:28:54;10.80;99.90
32446;DHT22;18899;50.748;7.102;2022-12-22T04:31:22;10.80;99.90
32446;DHT22;18899;50.748;7.102;2022-12-22T04:33:48;11.00;99.90
32446;DHT22;18899;50.748;7.102;2022-12-22T04:42:58;11.00;99.90
32446;DHT22;18899;50.748;7.102;2022-12-22T04:45:23;11.10;99.90
32446;DHT22;18899;50.748;7.102;2022-12-22T04:47:49;11.10;99.90
32446;DHT22;18899;50.748;7.102;2022-12-22T04:50:15;11.10;99.90
32446;DHT22;18899;50.748;7.102;2022-12-22T04:52:40;11.10;99.90
32446;DHT22;18899;50.748;7.102;2022-12-22T04:55:06;11.10;99.90
32446;DHT22;18899;50.748;7.102;2022-12-22T04:57:32;11.10;99.90
32446;DHT22;18899;50.748;7.102;2022-12-22T04:59:57;11.10;99.90
32446;DHT22;18899;50.748;7.102;2022-12-22T05:02:23;11.20;99.90
32446;DHT22;18899;50.748;7.102;2022-12-22T05:04:48;11.30;99.90
32446;DHT22;18899;50.748;7.102;2022-12-22T05:07:14;11.30;99.90
32446;DHT22;18899;50.748;7.102;2022-12-22T05:09:39;11.20;99.90
32446;DHT22;18899;50.748;7.102;2022-12-22T05:12:05;11.30;99.90
32446;DHT22;18899;50.748;7.102;2022-12-22T05:14:50;11.30;99.90
32446;DHT22;18899;50.748;7.102;2022-12-22T05:17:16;11.40;99.90
32446;DHT22;18899;50.748;7.102;2022-12-22T05:19:42;11.30;99.90
32446;DHT22;18899;50.748;7.102;2022-12-22T05:22:08;11.40;99.90
32446;DHT22;18899;50.748;7.102;2022-12-22T05:24:34;11.40;99.90
32446;DHT22;18899;50.748;7.102;2022-12-22T05:26:59;11.30;99.90
32446;DHT22;18899;50.748;7.102;2022-12-22T05:29:25;11.30;99.90
32446;DHT22;18899;50.748;7.102;2022-12-22T05:31:52;11.20;99.90
32446;DHT22;18899;50.748;7.102;2022-12-22T05:34:17;11.20;99.90
32446;DHT22;18899;50.748;7.102;2022-12-22T05:36:43;11.40;99.90
32446;DHT22;18899;50.748;7.102;2022-12-22T05:39:08;11.40;99.90
32446;DHT22;18899;50.748;7.102;2022-12-22T05:41:34;11.50;99.90
32446;DHT22;18899;50.748;7.102;2022-12-22T05:44:00;11.50;99.90
32446;DHT22;18899;50.748;7.102;2022-12-22T05:46:25;11.50;99.90
32446;DHT22;18899;50.748;7.102;2022-12-22T05:48:51;11.50;99.90
32446;DHT22;18899;50.748;7.102;2022-12-22T05:51:17;11.40;99.90
32446;DHT22;18899;50.748;7.102;2022-12-22T05:53:42;11.50;99.90
32446;DHT22;18899;50.748;7.102;2022-12-22T05:56:08;11.60;99.90
32446;DHT22;18899;50.748;7.102;2022-12-22T05:58:36;11.50;99.90
32446;DHT22;18899;50.748;7.102;2022-12-22T06:01:02;11.40;99.90
32446;DHT22;18899;50.748;7.102;2022-12-22T06:03:28;11.30;99.90
32446;DHT22;18899;50.748;7.102;2022-12-22T06:05:54;11.20;99.90
32446;DHT22;18899;50.748;7.102;2022-12-22T06:08:21;11.20;99.90
32446;DHT22;18899;50.748;7.102;2022-12-22T06:10:46;11.20;99.90
32446;DHT22;18899;50.748;7.102;2022-12-22T06:13:12;11.30;99.90
32446;DHT22;18899;50.748;7.102;2022-12-22T06:15:37;11.30;99.90
32446;DHT22;18899;50.748;7.102;2022-12-22T06:18:03;11.40;99.90
32446;DHT22;18899;50.748;7.102;2022-12-22T06:20:29;11.30;99.90
32446;DHT22;18899;50.748;7.102;2022-12-22T06:22:54;11.30;99.90
32446;DHT22;18899;50.748;7.102;2022-12-22T06:25:20;11.20;99.90
32446;DHT22;18899;50.748;7.102;2022-12-22T06:27:46;11.10;99.90
32446;DHT22;18899;50.748;7.102;2022-12-22T06:30:12;11.10;99.90
32446;DHT22;18899;50.748;7.102;2022-12-22T06:32:38;11.10;99.90
32446;DHT22;18899;50.748;7.102;2022-12-22T06:35:04;11.00;99.90
32446;DHT22;18899;50.748;7.102;2022-12-22T06:37:30;10.90;99.90
32446;DHT22;18899;50.748;7.102;2022-12-22T06:39:56;10.90;99.90
32446;DHT22;18899;50.748;7.102;2022-12-22T06:42:21;10.80;99.90
32446;DHT22;18899;50.748;7.102;2022-12-22T06:45:06;10.90;99.90
32446;DHT22;18899;50.748;7.102;2022-12-22T06:47:32;11.00;99.90
32446;DHT22;18899;50.748;7.102;2022-12-22T06:49:57;11.00;99.90
32446;DHT22;18899;50.748;7.102;2022-12-22T06:52:23;10.90;99.90
32446;DHT22;18899;50.748;7.102;2022-12-22T06:54:48;10.90;99.90
32446;DHT22;18899;50.748;7.102;2022-12-22T06:57:14;10.90;99.90
32446;DHT22;18899;50.748;7.102;2022-12-22T06:59:39;11.00;99.90
32446;DHT22;18899;50.748;7.102;2022-12-22T07:02:05;11.30;99.90
32446;DHT22;18899;50.748;7.102;2022-12-22T07:04:32;11.30;99.90
32446;DHT22;18899;50.748;7.102;2022-12-22T07:06:57;11.40;99.90
32446;DHT22;18899;50.748;7.102;2022-12-22T07:09:23;11.30;99.90
32446;DHT22;18899;50.748;7.102;2022-12-22T07:11:48;11.30;99.90
32446;DHT22;18899;50.748;7.102;2022-12-22T07:14:14;11.50;99.90
32446;DHT22;18899;50.748;7.102;2022-12-22T07:16:39;11.50;99.90
32446;DHT22;18899;50.748;7.102;2022-12-22T07:19:05;11.30;99.90
32446;DHT22;18899;50.748;7.102;2022-12-22T07:21:31;11.20;99.90
32446;DHT22;18899;50.748;7.102;2022-12-22T07:23:56;11.20;99.90
32446;DHT22;18899;50.748;7.102;2022-12-22T07:26:22;11.10;99.90
32446;DHT22;18899;50.748;7.102;2022-12-22T07:28:47;11.20;99.90
32446;DHT22;18899;50.748;7.102;2022-12-22T07:31:14;11.10;99.90
32446;DHT22;18899;50.748;7.102;2022-12-22T07:33:41;11.10;99.90
32446;DHT22;18899;50.748;7.102;2022-12-22T07:36:16;11.10;99.90
32446;DHT22;18899;50.748;7.102;2022-12-22T07:38:44;11.00;99.90
32446;DHT22;18899;50.748;7.102;2022-12-22T07:41:11;11.00;99.90
32446;DHT22;18899;50.748;7.102;2022-12-22T07:43:57;11.00;99.90
32446;DHT22;18899;50.748;7.102;2022-12-22T07:46:25;11.00;99.90
32446;DHT22;18899;50.748;7.102;2022-12-22T07:48:51;11.00;99.90
32446;DHT22;18899;50.748;7.102;2022-12-22T07:51:37;11.00;99.90
32446;DHT22;18899;50.748;7.102;2022-12-22T07:54:07;11.10;99.90
32446;DHT22;18899;50.748;7.102;2022-12-22T07:56:33;11.00;99.90
32446;DHT22;18899;50.748;7.102;2022-12-22T07:58:59;11.10;99.90
32446;DHT22;18899;50.748;7.102;2022-12-22T08:01:25;11.20;99.90
32446;DHT22;18899;50.748;7.102;2022-12-22T08:03:51;11.30;99.90
32446;DHT22;18899;50.748;7.102;2022-12-22T08:06:16;11.20;99.90
32446;DHT22;18899;50.748;7.102;2022-12-22T08:08:42;11.30;99.90
32446;DHT22;18899;50.748;7.102;2022-12-22T08:11:08;11.30;99.90
32446;DHT22;18899;50.748;7.102;2022-12-22T08:13:33;11.30;99.90
32446;DHT22;18899;50.748;7.102;2022-12-22T08:16:07;11.40;99.90
32446;DHT22;18899;50.748;7.102;2022-12-22T08:18:34;11.50;99.90
32446;DHT22;18899;50.748;7.102;2022-12-22T08:21:01;11.40;99.90
32446;DHT22;18899;50.748;7.102;2022-12-22T08:23:27;11.40;99.90
32446;DHT22;18899;50.748;7.102;2022-12-22T08:26:35;11.30;99.90
32446;DHT22;18899;50.748;7.102;2022-12-22T08:29:14;11.30;99.90
32446;DHT22;18899;50.748;7.102;2022-12-22T08:31:42;11.50;99.90
32446;DHT22;18899;50.748;7.102;2022-12-22T08:34:11;11.40;99.90
32446;DHT22;18899;50.748;7.102;2022-12-22T08:36:41;11.40;99.90
32446;DHT22;18899;50.748;7.102;2022-12-22T08:39:07;11.40;99.90
32446;DHT22;18899;50.748;7.102;2022-12-22T08:41:34;11.60;99.90
32446;DHT22;18899;50.748;7.102;2022-12-22T08:44:21;11.70;99.90
32446;DHT22;18899;50.748;7.102;2022-12-22T08:46:47;11.70;99.90
32446;DHT22;18899;50.748;7.102;2022-12-22T08:49:14;11.60;99.90
32446;DHT22;18899;50.748;7.102;2022-12-22T08:55:01;11.50;99.90
32446;DHT22;18899;50.748;7.102;2022-12-22T08:57:30;11.60;99.90
32446;DHT22;18899;50.748;7.102;2022-12-22T08:59:55;11.60;99.90
32446;DHT22;18899;50.748;7.102;2022-12-22T09:02:21;11.70;99.90
32446;DHT22;18899;50.748;7.102;2022-12-22T09:04:46;11.80;99.90
32446;DHT22;18899;50.748;7.102;2022-12-22T09:07:12;11.70;99.90
32446;DHT22;18899;50.748;7.102;2022-12-22T09:09:38;11.60;99.90
32446;DHT22;18899;50.748;7.102;2022-12-22T09:12:03;11.50;99.90
32446;DHT22;18899;50.748;7.102;2022-12-22T09:14:29;11.80;99.90
32446;DHT22;18899;50.748;7.102;2022-12-22T09:16:55;11.70;99.90
32446;DHT22;18899;50.748;7.102;2022-12-22T09:19:21;11.60;99.90
32446;DHT22;18899;50.748;7.102;2022-12-22T09:21:47;11.60;99.90
32446;DHT22;18899;50.748;7.102;2022-12-22T09:24:12;11.60;99.90
32446;DHT22;18899;50.748;7.102;2022-12-22T09:26:38;11.50;99.90
32446;DHT22;18899;50.748;7.102;2022-12-22T09:29:04;11.60;99.90
32446;DHT22;18899;50.748;7.102;2022-12-22T09:31:29;11.60;99.90
32446;DHT22;18899;50.748;7.102;2022-12-22T09:33:55;11.50;99.90
32446;DHT22;18899;50.748;7.102;2022-12-22T09:36:24;11.70;99.90
32446;DHT22;18899;50.748;7.102;2022-12-22T09:38:49;11.60;99.90
32446;DHT22;18899;50.748;7.102;2022-12-22T09:41:30;11.50;99.90
32446;DHT22;18899;50.748;7.102;2022-12-22T09:44:00;11.60;99.90
32446;DHT22;18899;50.748;7.102;2022-12-22T09:46:30;11.70;99.90
32446;DHT22;18899;50.748;7.102;2022-12-22T09:48:57;11.80;99.90
32446;DHT22;18899;50.748;7.102;2022-12-22T09:51:23;11.60;99.90
32446;DHT22;18899;50.748;7.102;2022-12-22T09:53:59;11.60;99.90
32446;DHT22;18899;50.748;7.102;2022-12-22T09:56:26;11.50;99.90
32446;DHT22;18899;50.748;7.102;2022-12-22T09:58:52;11.60;99.90
32446;DHT22;18899;50.748;7.102;2022-12-22T10:06:52;11.60;99.90
32446;DHT22;18899;50.748;7.102;2022-12-22T10:09:25;11.60;99.90
32446;DHT22;18899;50.748;7.102;2022-12-22T10:11:56;11.50;99.90
32446;DHT22;18899;50.748;7.102;2022-12-22T10:14:24;11.80;99.90
32446;DHT22;18899;50.748;7.102;2022-12-22T10:19:42;12.00;99.90
32446;DHT22;18899;50.748;7.102;2022-12-22T10:24:44;12.00;99.90
32446;DHT22;18899;50.748;7.102;2022-12-22T10:27:09;12.20;99.90
32446;DHT22;18899;50.748;7.102;2022-12-22T10:29:35;12.40;99.90
32446;DHT22;18899;50.748;7.102;2022-12-22T10:32:11;12.50;99.90
32446;DHT22;18899;50.748;7.102;2022-12-22T10:37:32;12.50;99.90
32446;DHT22;18899;50.748;7.102;2022-12-22T10:40:12;12.70;99.90
32446;DHT22;18899;50.748;7.102;2022-12-22T10:42:43;13.00;99.90
32446;DHT22;18899;50.748;7.102;2022-12-22T10:45:15;12.90;99.90
32446;DHT22;18899;50.748;7.102;2022-12-22T10:47:46;12.80;99.90
32446;DHT22;18899;50.748;7.102;2022-12-22T10:50:13;12.60;99.90
32446;DHT22;18899;50.748;7.102;2022-12-22T10:52:39;12.60;99.90
32446;DHT22;18899;50.748;7.102;2022-12-22T10:55:20;12.60;99.90
32446;DHT22;18899;50.748;7.102;2022-12-22T10:57:46;12.50;99.90
32446;DHT22;18899;50.748;7.102;2022-12-22T11:00:29;12.50;99.90
32446;DHT22;18899;50.748;7.102;2022-12-22T11:02:57;12.40;99.90
32446;DHT22;18899;50.748;7.102;2022-12-22T11:05:23;12.30;99.90
32446;DHT22;18899;50.748;7.102;2022-12-22T11:07:48;12.20;99.90
32446;DHT22;18899;50.748;7.102;2022-12-22T11:15:30;12.80;99.90
32446;DHT22;18899;50.748;7.102;2022-12-22T11:18:03;12.80;99.90
32446;DHT22;18899;50.748;7.102;2022-12-22T11:39:53;12.40;99.90
32446;DHT22;18899;50.748;7.102;2022-12-22T11:42:42;12.50;99.90
32446;DHT22;18899;50.748;7.102;2022-12-22T11:50:43;12.80;99.90
32446;DHT22;18899;50.748;7.102;2022-12-22T11:58:56;12.70;99.90
32446;DHT22;18899;50.748;7.102;2022-12-22T12:07:04;12.50;99.90
32446;DHT22;18899;50.748;7.102;2022-12-22T12:12:31;12.20;99.90
32446;DHT22;18899;50.748;7.102;2022-12-22T12:15:06;12.20;99.90
32446;DHT22;18899;50.748;7.102;2022-12-22T12:20:45;12.30;99.90
32446;DHT22;18899;50.748;7.102;2022-12-22T12:23:44;12.20;99.90
32446;DHT22;18899;50.748;7.102;2022-12-22T12:26:35;12.20;99.90
32446;DHT22;18899;50.748;7.102;2022-12-22T12:29:15;12.20;99.90
32446;DHT22;18899;50.748;7.102;2022-12-22T12:31:52;12.10;99.90
32446;DHT22;18899;50.748;7.102;2022-12-22T12:34:21;12.20;99.90
32446;DHT22;18899;50.748;7.102;2022-12-22T12:37:07;12.30;99.90
32446;DHT22;18899;50.748;7.102;2022-12-22T12:39:47;12.20;99.90
32446;DHT22;18899;50.748;7.102;2022-12-22T12:42:31;12.30;99.90
32446;DHT22;18899;50.748;7.102;2022-12-22T12:44:57;12.40;99.90
32446;DHT22;18899;50.748;7.102;2022-12-22T12:47:25;12.40;99.90
32446;DHT22;18899;50.748;7.102;2022-12-22T12:52:17;12.80;99.90
32446;DHT22;18899;50.748;7.102;2022-12-22T12:54:46;12.80;99.90
32446;DHT22;18899;50.748;7.102;2022-12-22T12:57:25;12.70;99.90
32446;DHT22;18899;50.748;7.102;2022-12-22T12:59:53;12.70;99.90
32446;DHT22;18899;50.748;7.102;2022-12-22T13:02:34;12.60;99.90
32446;DHT22;18899;50.748;7.102;2022-12-22T13:08:09;12.50;99.90
32446;DHT22;18899;50.748;7.102;2022-12-22T13:11:32;12.30;99.90
32446;DHT22;18899;50.748;7.102;2022-12-22T13:23:38;12.00;99.90
32446;DHT22;18899;50.748;7.102;2022-12-22T13:26:08;12.00;99.90
32446;DHT22;18899;50.748;7.102;2022-12-22T13:28:36;12.00;99.90
32446;DHT22;18899;50.748;7.102;2022-12-22T13:33:40;12.00;99.90
32446;DHT22;18899;50.748;7.102;2022-12-22T13:36:11;12.10;99.90
32446;DHT22;18899;50.748;7.102;2022-12-22T13:38:40;12.20;99.90
32446;DHT22;18899;50.748;7.102;2022-12-22T13:41:18;12.30;99.90
32446;DHT22;18899;50.748;7.102;2022-12-22T13:43:48;12.10;99.90
32446;DHT22;18899;50.748;7.102;2022-12-22T13:46:16;12.10;99.90
32446;DHT22;18899;50.748;7.102;2022-12-22T13:48:48;12.10;99.90
32446;DHT22;18899;50.748;7.102;2022-12-22T13:51:18;12.20;99.90
32446;DHT22;18899;50.748;7.102;2022-12-22T13:53:49;12.20;99.90
32446;DHT22;18899;50.748;7.102;2022-12-22T13:56:23;12.10;99.90
32446;DHT22;18899;50.748;7.102;2022-12-22T13:58:58;12.20;99.90
32446;DHT22;18899;50.748;7.102;2022-12-22T14:01:28;12.20;99.90
32446;DHT22;18899;50.748;7.102;2022-12-22T14:03:59;12.10;99.90
32446;DHT22;18899;50.748;7.102;2022-12-22T14:06:33;11.80;99.90
32446;DHT22;18899;50.748;7.102;2022-12-22T14:11:37;11.60;99.90
32446;DHT22;18899;50.748;7.102;2022-12-22T14:14:16;11.70;99.90
32446;DHT22;18899;50.748;7.102;2022-12-22T14:16:47;11.70;99.90
32446;DHT22;18899;50.748;7.102;2022-12-22T14:19:15;11.80;99.90
32446;DHT22;18899;50.748;7.102;2022-12-22T14:21:42;12.00;99.90
32446;DHT22;18899;50.748;7.102;2022-12-22T14:24:15;12.10;99.90
32446;DHT22;18899;50.748;7.102;2022-12-22T14:26:43;12.10;99.90
32446;DHT22;18899;50.748;7.102;2022-12-22T14:29:14;12.10;99.90
32446;DHT22;18899;50.748;7.102;2022-12-22T14:31:59;12.20;99.90
32446;DHT22;18899;50.748;7.102;2022-12-22T14:34:31;12.30;99.90
32446;DHT22;18899;50.748;7.102;2022-12-22T14:36:58;12.40;99.90
32446;DHT22;18899;50.748;7.102;2022-12-22T14:39:27;12.40;99.90
32446;DHT22;18899;50.748;7.102;2022-12-22T14:42:03;12.50;99.90
32446;DHT22;18899;50.748;7.102;2022-12-22T14:44:32;12.50;99.90
32446;DHT22;18899;50.748;7.102;2022-12-22T14:49:53;12.30;99.90
32446;DHT22;18899;50.748;7.102;2022-12-22T14:55:05;11.90;99.90
32446;DHT22;18899;50.748;7.102;2022-12-22T14:57:45;11.90;99.90
32446;DHT22;18899;50.748;7.102;2022-12-22T15:02:51;11.50;99.90
32446;DHT22;18899;50.748;7.102;2022-12-22T15:05:31;11.30;99.90
32446;DHT22;18899;50.748;7.102;2022-12-22T15:07:59;11.20;99.90
32446;DHT22;18899;50.748;7.102;2022-12-22T15:10:27;11.00;99.90
32446;DHT22;18899;50.748;7.102;2022-12-22T15:12:58;11.10;99.90
32446;DHT22;18899;50.748;7.102;2022-12-22T15:15:27;11.20;99.90
32446;DHT22;18899;50.748;7.102;2022-12-22T15:17:53;11.30;99.90
32446;DHT22;18899;50.748;7.102;2022-12-22T15:20:24;11.40;99.90
32446;DHT22;18899;50.748;7.102;2022-12-22T15:22:50;11.60;99.90
32446;DHT22;18899;50.748;7.102;2022-12-22T15:25:21;11.60;99.90
32446;DHT22;18899;50.748;7.102;2022-12-22T15:27:46;11.60;99.90
32446;DHT22;18899;50.748;7.102;2022-12-22T15:30:16;11.60;99.90
32446;DHT22;18899;50.748;7.102;2022-12-22T15:32:42;11.40;99.90
32446;DHT22;18899;50.748;7.102;2022-12-22T15:35:31;11.20;99.90
32446;DHT22;18899;50.748;7.102;2022-12-22T15:37:57;11.30;99.90
32446;DHT22;18899;50.748;7.102;2022-12-22T15:40:24;11.40;99.90
32446;DHT22;18899;50.748;7.102;2022-12-22T15:42:50;11.50;99.90
32446;DHT22;18899;50.748;7.102;2022-12-22T15:45:17;11.50;99.90
32446;DHT22;18899;50.748;7.102;2022-12-22T15:47:50;11.50;99.90
32446;DHT22;18899;50.748;7.102;2022-12-22T15:50:19;11.50;99.90
32446;DHT22;18899;50.748;7.102;2022-12-22T15:52:49;11.50;99.90
32446;DHT22;18899;50.748;7.102;2022-12-22T15:55:15;11.50;99.90
32446;DHT22;18899;50.748;7.102;2022-12-22T15:57:42;11.60;99.90
32446;DHT22;18899;50.748;7.102;2022-12-22T16:00:11;11.50;99.90
32446;DHT22;18899;50.748;7.102;2022-12-22T16:02:36;11.50;99.90
32446;DHT22;18899;50.748;7.102;2022-12-22T16:05:02;11.30;99.90
32446;DHT22;18899;50.748;7.102;2022-12-22T16:07:29;11.10;99.90
32446;DHT22;18899;50.748;7.102;2022-12-22T16:09:55;11.10;99.90
32446;DHT22;18899;50.748;7.102;2022-12-22T16:12:21;11.20;99.90
32446;DHT22;18899;50.748;7.102;2022-12-22T16:14:50;11.30;99.90
32446;DHT22;18899;50.748;7.102;2022-12-22T16:17:22;11.30;99.90
32446;DHT22;18899;50.748;7.102;2022-12-22T16:19:48;11.20;99.90
32446;DHT22;18899;50.748;7.102;2022-12-22T16:22:14;11.30;99.90
32446;DHT22;18899;50.748;7.102;2022-12-22T16:24:42;11.20;99.90
32446;DHT22;18899;50.748;7.102;2022-12-22T16:27:13;11.10;99.90
32446;DHT22;18899;50.748;7.102;2022-12-22T16:29:42;11.00;99.90
32446;DHT22;18899;50.748;7.102;2022-12-22T16:34:49;11.20;99.90
32446;DHT22;18899;50.748;7.102;2022-12-22T16:37:15;11.20;99.90
32446;DHT22;18899;50.748;7.102;2022-12-22T16:39:40;11.20;99.90
32446;DHT22;18899;50.748;7.102;2022-12-22T16:42:12;11.40;99.90
32446;DHT22;18899;50.748;7.102;2022-12-22T16:44:40;11.40;99.90
32446;DHT22;18899;50.748;7.102;2022-12-22T16:47:08;11.30;99.90
32446;DHT22;18899;50.748;7.102;2022-12-22T16:49:37;11.30;99.90
32446;DHT22;18899;50.748;7.102;2022-12-22T16:52:02;11.40;99.90
32446;DHT22;18899;50.748;7.102;2022-12-22T16:54:28;11.30;99.90
32446;DHT22;18899;50.748;7.102;2022-12-22T16:56:54;11.30;99.90
32446;DHT22;18899;50.748;7.102;2022-12-22T16:59:19;11.30;99.90
32446;DHT22;18899;50.748;7.102;2022-12-22T17:01:51;11.30;99.90
32446;DHT22;18899;50.748;7.102;2022-12-22T17:04:30;11.30;99.90
32446;DHT22;18899;50.748;7.102;2022-12-22T17:06:58;11.40;99.90
32446;DHT22;18899;50.748;7.102;2022-12-22T17:09:31;11.40;99.90
32446;DHT22;18899;50.748;7.102;2022-12-22T17:11:58;11.60;99.90
32446;DHT22;18899;50.748;7.102;2022-12-22T17:16:53;11.50;99.90
32446;DHT22;18899;50.748;7.102;2022-12-22T17:19:18;11.40;99.90
32446;DHT22;18899;50.748;7.102;2022-12-22T17:21:45;11.30;99.90
32446;DHT22;18899;50.748;7.102;2022-12-22T17:24:13;11.30;99.90
32446;DHT22;18899;50.748;7.102;2022-12-22T17:26:40;11.30;99.90
32446;DHT22;18899;50.748;7.102;2022-12-22T17:29:15;11.40;99.90
32446;DHT22;18899;50.748;7.102;2022-12-22T17:31:41;11.30;99.90
32446;DHT22;18899;50.748;7.102;2022-12-22T17:34:12;11.40;99.90
32446;DHT22;18899;50.748;7.102;2022-12-22T17:36:38;11.40;99.90
32446;DHT22;18899;50.748;7.102;2022-12-22T17:39:04;11.30;99.90
32446;DHT22;18899;50.748;7.102;2022-12-22T17:41:30;11.30;99.90
32446;DHT22;18899;50.748;7.102;2022-12-22T17:43:56;11.50;99.90
32446;DHT22;18899;50.748;7.102;2022-12-22T17:46:22;11.50;99.90
32446;DHT22;18899;50.748;7.102;2022-12-22T17:48:48;11.50;99.90
32446;DHT22;18899;50.748;7.102;2022-12-22T17:51:26;11.60;99.90
32446;DHT22;18899;50.748;7.102;2022-12-22T17:53:53;11.80;99.90
32446;DHT22;18899;50.748;7.102;2022-12-22T17:56:21;11.70;99.90
32446;DHT22;18899;50.748;7.102;2022-12-22T17:58:48;11.70;99.90
32446;DHT22;18899;50.748;7.102;2022-12-22T18:01:24;11.80;99.90